Liverpool, West Virginia
Current Conditions -  °F | °C
As of 5:53 PM on Friday 28 Nov 2014 (Local Time) from KPKB Reporting Station
Broken Clouds Broken Clouds  
Wind Chill: 25°   Ceiling: 12000
Heat Index: 30°   Visibility: 10mi
Dew Point: 16°   Wind: 5mph
Humidity: 56%   Direction: 150°SSE
Pressure: 30.29"   Gusts: NA
Location:  38.9557°N, 81.5714°W
Report Text: KPKB 282253Z 15004KT 10SM BKN120 M01/M09 A3029 RMK AO2 SLP264 T10111089
Loading
Personal Weather Stations






























Interactive Weather Map New forecast layout! Learn more

10-Day Weather Forecast

Advertisements
Track Severe Weather on mobile